createdAt,value
2023-07-15T00:00:58.165Z,23.25
2023-07-15T00:01:59.249Z,23.22
2023-07-15T00:02:59.242Z,23.23
2023-07-15T00:03:59.128Z,23.21
2023-07-15T00:04:59.066Z,23.19
2023-07-15T00:05:59.046Z,23.18
2023-07-15T00:06:59.064Z,23.16
2023-07-15T00:07:59.043Z,23.14
2023-07-15T00:08:59.050Z,23.11
2023-07-15T00:09:59.048Z,23.11
2023-07-15T00:10:59.922Z,23.12
2023-07-15T00:11:59.936Z,23.09
2023-07-15T00:12:58.985Z,23.09
2023-07-15T00:13:59.943Z,23.07
2023-07-15T00:14:59.017Z,23.04
2023-07-15T00:15:58.985Z,23.03
2023-07-15T00:16:58.965Z,23.01
2023-07-15T00:17:59.057Z,23.00
2023-07-15T00:18:58.956Z,22.97
2023-07-15T00:19:58.963Z,22.96
2023-07-15T00:20:58.902Z,22.99
2023-07-15T00:21:58.909Z,22.97
2023-07-15T00:22:58.928Z,22.97
2023-07-15T00:23:58.986Z,22.91
2023-07-15T00:24:58.918Z,22.82
2023-07-15T00:25:58.863Z,22.76
2023-07-15T00:26:58.832Z,22.75
2023-07-15T00:27:58.914Z,22.72
2023-07-15T00:28:58.810Z,22.67
2023-07-15T00:29:58.865Z,22.69
2023-07-15T00:30:58.799Z,22.69
2023-07-15T00:31:58.880Z,22.63
2023-07-15T00:32:58.802Z,22.56
2023-07-15T00:33:58.743Z,22.52
2023-07-15T00:34:58.810Z,22.45
2023-07-15T00:35:58.734Z,22.41
2023-07-15T00:36:59.745Z,22.36
2023-07-15T00:37:58.779Z,22.36
2023-07-15T00:38:58.916Z,22.33
2023-07-15T00:39:58.856Z,22.27
2023-07-15T00:40:58.680Z,22.23
2023-07-15T00:41:58.730Z,22.17
2023-07-15T00:42:59.897Z,22.11
2023-07-15T00:43:59.109Z,22.12
2023-07-15T00:44:58.679Z,22.12
2023-07-15T00:45:58.680Z,22.12
2023-07-15T00:46:58.649Z,22.11
2023-07-15T00:47:58.720Z,22.11
2023-07-15T00:48:58.627Z,22.12
2023-07-15T00:49:58.595Z,22.09
2023-07-15T00:50:58.601Z,22.09
2023-07-15T00:51:58.627Z,22.05
2023-07-15T00:52:58.587Z,22.04
2023-07-15T00:53:58.531Z,21.98
2023-07-15T00:54:58.599Z,21.98
2023-07-15T00:55:58.564Z,21.96
2023-07-15T00:56:58.532Z,21.96
2023-07-15T00:57:58.561Z,21.91
2023-07-15T00:58:58.504Z,21.90
2023-07-15T00:59:58.517Z,21.91
2023-07-15T01:00:58.522Z,21.83
2023-07-15T01:01:58.459Z,21.81
2023-07-15T01:02:58.551Z,21.74
2023-07-15T01:03:58.500Z,21.74
2023-07-15T01:04:58.470Z,21.74
2023-07-15T01:05:58.412Z,21.74
2023-07-15T01:06:58.420Z,21.74
2023-07-15T01:07:58.407Z,21.77
2023-07-15T01:08:58.392Z,21.77
2023-07-15T01:09:58.421Z,21.75
2023-07-15T01:10:58.943Z,21.73
2023-07-15T01:11:58.410Z,21.74
2023-07-15T01:12:58.355Z,21.70
2023-07-15T01:13:58.362Z,21.73
2023-07-15T01:14:58.331Z,21.71
2023-07-15T01:15:58.355Z,21.71
2023-07-15T01:16:58.355Z,21.70
2023-07-15T01:17:58.376Z,21.70
2023-07-15T01:18:58.336Z,21.70
2023-07-15T01:19:58.266Z,21.67
2023-07-15T01:20:58.273Z,21.67
2023-07-15T01:21:58.253Z,21.67
2023-07-15T01:22:58.285Z,21.64
2023-07-15T01:23:58.222Z,21.64
2023-07-15T01:24:58.239Z,21.61
2023-07-15T01:25:58.219Z,21.61
2023-07-15T01:26:58.237Z,21.59
2023-07-15T01:27:58.230Z,21.59
2023-07-15T01:28:58.176Z,21.58
2023-07-15T01:29:58.160Z,21.59
2023-07-15T01:30:58.202Z,21.59
2023-07-15T01:31:58.156Z,21.61
2023-07-15T01:32:58.206Z,21.59
2023-07-15T01:33:58.151Z,21.58
2023-07-15T01:34:58.142Z,21.58
2023-07-15T01:35:58.105Z,21.53
2023-07-15T01:36:58.103Z,21.53
2023-07-15T01:37:58.088Z,21.51
2023-07-15T01:38:58.109Z,21.49
2023-07-15T01:39:58.083Z,21.51
2023-07-15T01:40:58.092Z,21.48
2023-07-15T01:41:58.077Z,21.43
2023-07-15T01:42:58.090Z,21.43
2023-07-15T01:43:58.047Z,21.42
2023-07-15T01:44:58.027Z,21.43
2023-07-15T01:45:58.039Z,21.43
2023-07-15T01:46:58.168Z,21.43
2023-07-15T01:47:58.027Z,21.42
2023-07-15T01:48:57.997Z,21.40
2023-07-15T01:49:57.973Z,21.43
2023-07-15T01:50:57.951Z,21.43
2023-07-15T01:51:58.019Z,21.45
2023-07-15T01:52:58.088Z,21.48
2023-07-15T01:53:57.914Z,21.45
2023-07-15T01:54:58.466Z,21.45
2023-07-15T01:55:58.141Z,21.45
2023-07-15T01:56:58.469Z,21.42
2023-07-15T01:57:57.904Z,21.42
2023-07-15T01:58:57.952Z,21.40
2023-07-15T01:59:57.929Z,21.42
2023-07-15T02:00:57.904Z,21.42
2023-07-15T02:01:57.958Z,21.42
2023-07-15T02:02:57.960Z,21.40
2023-07-15T02:03:57.963Z,21.42
2023-07-15T02:04:58.578Z,21.40
2023-07-15T02:05:57.859Z,21.43
2023-07-15T02:06:57.879Z,21.43
2023-07-15T02:07:57.826Z,21.40
2023-07-15T02:08:59.853Z,21.42
2023-07-15T02:09:57.759Z,21.42
2023-07-15T02:10:57.752Z,21.42
2023-07-15T02:11:57.744Z,21.38
2023-07-15T02:12:57.744Z,21.38
2023-07-15T02:13:57.724Z,21.36
2023-07-15T02:14:57.703Z,21.37
2023-07-15T02:15:57.708Z,21.36
2023-07-15T02:16:57.742Z,21.33
2023-07-15T02:17:57.774Z,21.33
2023-07-15T02:18:57.673Z,21.36
2023-07-15T02:19:57.681Z,21.38
2023-07-15T02:20:57.653Z,21.37
2023-07-15T02:21:57.649Z,21.40
2023-07-15T02:23:00.338Z,21.43
2023-07-15T02:23:57.597Z,21.45
2023-07-15T02:24:57.607Z,21.46
2023-07-15T02:25:57.615Z,21.45
2023-07-15T02:26:57.628Z,21.48
2023-07-15T02:27:57.567Z,21.46
2023-07-15T02:28:57.584Z,21.52
2023-07-15T02:29:57.551Z,21.52
2023-07-15T02:30:57.635Z,21.49
2023-07-15T02:31:57.657Z,21.49
2023-07-15T02:32:57.594Z,21.48
2023-07-15T02:33:57.570Z,21.46
2023-07-15T02:34:57.535Z,21.48
2023-07-15T02:35:57.520Z,21.48
2023-07-15T02:36:57.483Z,21.49
2023-07-15T02:37:59.669Z,21.45
2023-07-15T02:38:57.458Z,21.43
2023-07-15T02:39:57.426Z,21.43
2023-07-15T02:40:57.507Z,21.43
2023-07-15T02:41:57.462Z,21.45
2023-07-15T02:42:57.432Z,21.52
2023-07-15T02:43:58.107Z,21.51
2023-07-15T02:44:57.466Z,21.52
2023-07-15T02:45:57.399Z,21.56
2023-07-15T02:46:57.430Z,21.64
2023-07-15T02:47:57.392Z,21.67
2023-07-15T02:48:57.403Z,21.68
2023-07-15T02:49:57.353Z,21.71
2023-07-15T02:50:57.341Z,21.71
2023-07-15T02:51:57.321Z,21.81
2023-07-15T02:52:57.301Z,21.86
2023-07-15T02:53:57.291Z,21.89
2023-07-15T02:54:57.325Z,21.90
2023-07-15T02:55:57.418Z,21.93
2023-07-15T02:56:57.325Z,21.96
2023-07-15T02:57:57.270Z,21.94
2023-07-15T02:58:57.241Z,21.98
2023-07-15T02:59:57.452Z,21.99
2023-07-15T03:00:57.252Z,22.06
2023-07-15T03:01:57.284Z,22.08
2023-07-15T03:02:57.316Z,22.11
2023-07-15T03:03:57.180Z,22.09
2023-07-15T03:04:57.207Z,22.12
2023-07-15T03:05:57.209Z,22.19
2023-07-15T03:06:58.085Z,22.24
2023-07-15T03:07:57.184Z,22.26
2023-07-15T03:08:57.132Z,22.26
2023-07-15T03:09:57.121Z,22.26
2023-07-15T03:10:57.163Z,22.27
2023-07-15T03:11:57.170Z,22.27
2023-07-15T03:45:29.434Z,22.57
2023-07-15T03:46:31.576Z,22.60
2023-07-15T03:47:30.474Z,22.64
2023-07-15T03:48:30.496Z,22.70
2023-07-15T03:49:30.677Z,22.78
2023-07-15T03:50:30.403Z,22.84
2023-07-15T03:51:30.388Z,22.88
2023-07-15T03:52:30.390Z,22.89
2023-07-15T03:53:30.368Z,22.93
2023-07-15T03:54:30.398Z,22.94
2023-07-15T03:55:30.338Z,22.93
2023-07-15T03:56:30.335Z,22.91
2023-07-15T03:57:30.345Z,22.89
2023-07-15T03:58:30.588Z,22.91
2023-07-15T03:59:30.339Z,22.91
2023-07-15T04:00:30.292Z,22.89
2023-07-15T04:01:30.413Z,22.89
2023-07-15T04:02:30.325Z,22.88
2023-07-15T04:03:30.318Z,22.86
2023-07-15T04:04:30.275Z,22.86
2023-07-15T04:05:30.263Z,22.84
2023-07-15T04:06:30.253Z,22.84
2023-07-15T04:07:30.637Z,22.85
2023-07-15T04:08:30.223Z,22.82
2023-07-15T04:09:30.258Z,22.86
2023-07-15T04:10:30.224Z,22.84
2023-07-15T04:11:30.175Z,22.82
2023-07-15T04:12:30.173Z,22.81
2023-07-15T04:13:30.155Z,22.84
2023-07-15T04:14:30.161Z,22.85
2023-07-15T04:15:30.153Z,22.88
2023-07-15T04:16:30.174Z,22.88
2023-07-15T04:17:30.137Z,22.88
2023-07-15T04:18:32.169Z,22.91
2023-07-15T04:19:30.117Z,22.99
2023-07-15T04:20:30.144Z,23.01
2023-07-15T04:21:30.144Z,23.06
2023-07-15T04:22:30.111Z,23.09
2023-07-15T04:23:31.996Z,23.15
2023-07-15T04:24:30.121Z,23.16
2023-07-15T04:25:30.040Z,23.16
2023-07-15T04:26:30.075Z,23.18
2023-07-15T04:27:30.029Z,23.22
2023-07-15T04:28:30.002Z,23.25
2023-07-15T04:29:30.008Z,23.26
2023-07-15T04:30:30.001Z,23.26
2023-07-15T04:31:30.061Z,23.34
2023-07-15T04:32:29.971Z,23.37
2023-07-15T04:33:29.942Z,23.42
2023-07-15T04:34:29.956Z,23.47
2023-07-15T04:35:29.950Z,23.50
2023-07-15T04:36:29.942Z,23.54
2023-07-15T04:37:29.915Z,23.54
2023-07-15T04:38:29.913Z,23.59
2023-07-15T04:39:29.911Z,23.64
2023-07-15T04:40:29.870Z,23.68
2023-07-15T04:41:29.880Z,23.64
2023-07-15T04:42:29.886Z,23.67
2023-07-15T04:43:29.899Z,23.67
2023-07-15T04:44:29.904Z,23.63
2023-07-15T04:45:29.841Z,23.50
2023-07-15T04:46:29.902Z,23.32
2023-07-15T04:47:29.846Z,23.07
2023-07-15T04:48:29.891Z,22.93
2023-07-15T04:49:29.806Z,22.74
2023-07-15T04:50:29.806Z,22.52
2023-07-15T04:51:29.782Z,22.39
2023-07-15T04:52:29.760Z,22.36
2023-07-15T04:53:29.776Z,22.29
2023-07-15T04:54:29.794Z,22.26
2023-07-15T04:55:29.708Z,22.31
2023-07-15T04:56:29.732Z,22.27
2023-07-15T04:57:32.394Z,22.24
2023-07-15T04:58:29.751Z,22.29
2023-07-15T04:59:29.692Z,22.30
2023-07-15T05:00:29.675Z,22.38
2023-07-15T05:01:29.705Z,22.41
2023-07-15T05:02:29.639Z,22.38
2023-07-15T05:03:29.916Z,22.42
2023-07-15T05:04:29.622Z,22.44
2023-07-15T05:05:29.657Z,22.39
2023-07-15T05:06:29.604Z,22.42
2023-07-15T05:07:32.757Z,22.46
2023-07-15T05:08:29.617Z,22.49
2023-07-15T05:09:29.583Z,22.64
2023-07-15T05:10:29.580Z,22.84
2023-07-15T05:11:29.556Z,22.99
2023-07-15T05:12:29.578Z,23.07
2023-07-15T05:13:29.649Z,23.14
2023-07-15T05:14:29.515Z,23.16
2023-07-15T05:15:29.620Z,23.18
2023-07-15T05:16:29.492Z,23.06
2023-07-15T05:17:29.544Z,22.99
2023-07-15T05:18:29.481Z,22.93
2023-07-15T05:19:29.555Z,22.96
2023-07-15T05:20:29.478Z,22.93
2023-07-15T05:21:29.461Z,22.79
2023-07-15T05:22:29.525Z,22.67
2023-07-15T05:23:29.430Z,22.70
2023-07-15T05:24:29.439Z,22.76
2023-07-15T05:25:29.431Z,22.85
2023-07-15T05:26:29.388Z,22.91
2023-07-15T05:27:29.420Z,22.88
2023-07-15T05:28:29.425Z,22.97
2023-07-15T05:29:29.367Z,23.09
2023-07-15T05:30:29.620Z,23.16
2023-07-15T05:31:29.460Z,23.21
2023-07-15T05:32:29.426Z,23.21
2023-07-15T05:33:29.337Z,23.21
2023-07-15T05:34:29.363Z,23.23
2023-07-15T05:35:29.309Z,23.22
2023-07-15T05:36:29.341Z,23.35
2023-07-15T05:37:29.275Z,23.44
2023-07-15T05:38:29.315Z,23.53
2023-07-15T05:39:29.270Z,23.59
2023-07-15T05:40:29.335Z,23.59
2023-07-15T05:41:30.206Z,23.67
2023-07-15T05:42:29.248Z,23.75
2023-07-15T05:43:29.473Z,23.79
2023-07-15T05:44:29.264Z,23.79
2023-07-15T05:45:29.299Z,23.89
2023-07-15T05:46:29.268Z,23.97
2023-07-15T05:47:29.184Z,24.04
2023-07-15T05:48:29.205Z,24.11
2023-07-15T05:49:29.232Z,24.12
2023-07-15T05:50:29.178Z,24.11
2023-07-15T05:51:29.179Z,24.12
2023-07-15T05:52:29.332Z,24.16
2023-07-15T05:53:29.177Z,24.26
2023-07-15T05:54:29.116Z,24.44
2023-07-15T05:55:29.129Z,24.56
2023-07-15T05:56:29.207Z,24.75
2023-07-15T05:57:29.160Z,24.93
2023-07-15T05:58:29.067Z,25.05
2023-07-15T05:59:29.128Z,25.07
2023-07-15T06:00:29.078Z,24.99
2023-07-15T06:01:29.078Z,24.87
2023-07-15T06:02:29.740Z,24.80
2023-07-15T06:03:29.163Z,24.83
2023-07-15T06:04:29.011Z,24.84
2023-07-15T06:05:29.394Z,24.86
2023-07-15T06:06:29.226Z,24.84
2023-07-15T06:07:28.988Z,24.86
2023-07-15T06:08:28.963Z,24.92
2023-07-15T06:09:29.140Z,24.92
2023-07-15T06:10:29.000Z,24.93
2023-07-15T06:11:28.916Z,24.94
2023-07-15T06:12:28.917Z,24.99
2023-07-15T06:13:30.794Z,25.02
2023-07-15T06:14:28.928Z,25.07
2023-07-15T06:15:29.710Z,25.16
2023-07-15T06:16:28.903Z,25.20
2023-07-15T06:17:29.017Z,25.27
2023-07-15T06:18:28.842Z,25.41
2023-07-15T06:19:28.918Z,25.64
2023-07-15T06:20:29.098Z,25.83
2023-07-15T06:21:28.824Z,25.90
2023-07-15T06:22:28.831Z,25.96
2023-07-15T06:23:28.806Z,25.86
2023-07-15T06:24:28.804Z,25.76
2023-07-15T06:25:28.780Z,25.89
2023-07-15T06:26:28.796Z,26.11
2023-07-15T06:27:29.058Z,26.13
2023-07-15T06:28:28.838Z,26.32
2023-07-15T06:29:28.743Z,26.47
2023-07-15T06:30:29.119Z,26.54
2023-07-15T06:31:28.781Z,26.54
2023-07-15T06:32:28.777Z,26.44
2023-07-15T06:33:28.717Z,26.32
2023-07-15T06:34:28.692Z,26.28
2023-07-15T06:35:28.710Z,26.29
2023-07-15T06:36:28.668Z,26.29
2023-07-15T06:37:28.736Z,26.31
2023-07-15T06:38:29.213Z,26.35
2023-07-15T06:39:28.830Z,26.35
2023-07-15T06:40:28.657Z,26.32
2023-07-15T06:41:28.722Z,26.32
2023-07-15T06:42:28.610Z,26.35
2023-07-15T06:43:28.627Z,26.34
2023-07-15T06:44:28.648Z,26.31
2023-07-15T06:45:29.289Z,26.32
2023-07-15T06:46:28.834Z,26.42
2023-07-15T06:47:28.900Z,26.64
2023-07-15T06:48:28.820Z,26.86
2023-07-15T06:49:28.527Z,26.94
2023-07-15T06:50:28.716Z,27.05
2023-07-15T06:51:28.523Z,27.09
2023-07-15T06:52:28.506Z,27.11
2023-07-15T06:53:28.897Z,27.13
2023-07-15T06:54:28.636Z,27.20
2023-07-15T06:55:28.686Z,27.09
2023-07-15T06:56:28.460Z,26.94
2023-07-15T06:57:28.486Z,26.94
2023-07-15T06:58:28.469Z,27.03
2023-07-15T06:59:28.694Z,27.08
2023-07-15T07:00:28.574Z,26.96
2023-07-15T07:01:28.617Z,26.97
2023-07-15T07:02:28.490Z,27.01
2023-07-15T07:03:28.450Z,26.97
2023-07-15T07:04:28.495Z,26.98
2023-07-15T07:05:28.447Z,27.02
2023-07-15T07:06:29.237Z,27.01
2023-07-15T07:07:28.409Z,27.03
2023-07-15T07:08:28.631Z,27.02
2023-07-15T07:09:28.351Z,27.03
2023-07-15T07:10:28.318Z,27.11
2023-07-15T07:11:28.342Z,27.15
2023-07-15T07:12:28.309Z,27.18
2023-07-15T07:13:28.332Z,27.23
2023-07-15T07:14:28.292Z,27.27
2023-07-15T07:15:28.267Z,27.24
2023-07-15T07:16:28.238Z,27.16
2023-07-15T07:17:28.316Z,27.16
2023-07-15T07:18:28.443Z,27.24
2023-07-15T07:19:28.234Z,27.31
2023-07-15T07:20:28.244Z,27.45
2023-07-15T07:21:28.208Z,27.63
2023-07-15T07:22:28.246Z,27.86
2023-07-15T07:23:28.187Z,27.90
2023-07-15T07:24:28.178Z,27.74
2023-07-15T07:25:28.293Z,27.71
2023-07-15T07:26:28.137Z,27.66
2023-07-15T07:27:28.178Z,27.58
2023-07-15T07:28:28.142Z,27.58
2023-07-15T07:29:28.144Z,27.59
2023-07-15T07:30:28.140Z,27.58
2023-07-15T07:31:28.209Z,27.58
2023-07-15T07:32:28.302Z,27.55
2023-07-15T07:33:28.085Z,27.58
2023-07-15T07:34:28.113Z,27.53
2023-07-15T07:35:28.070Z,27.53
2023-07-15T07:36:28.090Z,27.52
2023-07-15T07:37:28.167Z,27.53
2023-07-15T07:38:28.064Z,27.58
2023-07-15T07:39:28.032Z,27.49
2023-07-15T07:40:28.143Z,27.53
2023-07-15T07:41:28.055Z,27.52
2023-07-15T07:42:27.993Z,27.50
2023-07-15T07:43:28.724Z,27.50
2023-07-15T07:44:28.017Z,27.61
2023-07-15T07:45:27.978Z,27.59
2023-07-15T07:46:28.003Z,27.62
2023-07-15T07:47:28.067Z,27.62
2023-07-15T07:48:28.018Z,27.62
2023-07-15T07:49:27.917Z,27.61
2023-07-15T07:50:27.918Z,27.61
2023-07-15T07:51:27.886Z,27.55
2023-07-15T07:52:27.878Z,27.52
2023-07-15T07:53:28.307Z,27.46
2023-07-15T07:54:27.910Z,27.46
2023-07-15T07:55:27.889Z,27.48
2023-07-15T07:56:27.834Z,27.43
2023-07-15T07:57:28.070Z,27.42
2023-07-15T07:58:27.806Z,27.35
2023-07-15T07:59:27.854Z,27.33
2023-07-15T08:00:27.826Z,27.31
2023-07-15T08:01:27.853Z,27.28
2023-07-15T08:02:28.526Z,27.31
2023-07-15T08:03:27.801Z,27.35
2023-07-15T08:04:27.802Z,27.39
2023-07-15T08:05:27.769Z,27.39
2023-07-15T08:06:27.721Z,27.49
2023-07-15T08:07:27.775Z,27.52
2023-07-15T08:08:27.721Z,27.63
2023-07-15T08:09:27.714Z,27.76
2023-07-15T08:10:27.713Z,27.84
2023-07-15T08:11:27.754Z,27.81
2023-07-15T08:12:28.266Z,27.72
2023-07-15T08:13:27.693Z,27.77
2023-07-15T08:14:27.726Z,27.84
2023-07-15T08:15:27.653Z,27.93
2023-07-15T08:16:27.694Z,28.15
2023-07-15T08:17:27.725Z,28.24
2023-07-15T08:18:27.610Z,28.35
2023-07-15T08:19:27.613Z,28.45
2023-07-15T08:20:27.582Z,28.54
2023-07-15T08:21:27.678Z,28.54
2023-07-15T08:22:27.595Z,28.87
2023-07-15T08:23:27.548Z,29.00
2023-07-15T08:24:27.560Z,29.07
2023-07-15T08:25:27.546Z,29.11
2023-07-15T08:26:27.531Z,29.21
2023-07-15T08:27:27.514Z,29.05
2023-07-15T08:28:27.496Z,28.97
2023-07-15T08:29:27.484Z,29.10
2023-07-15T08:30:27.494Z,29.26
2023-07-15T08:31:27.989Z,29.41
2023-07-15T08:32:27.572Z,29.52
2023-07-15T08:33:28.280Z,29.70
2023-07-15T08:34:27.443Z,29.91
2023-07-15T08:35:27.468Z,29.84
2023-07-15T08:36:27.480Z,29.85
2023-07-15T08:37:28.290Z,29.92
2023-07-15T08:38:27.432Z,29.88
2023-07-15T08:39:27.424Z,29.73
2023-07-15T08:40:27.365Z,29.84
2023-07-15T08:41:27.482Z,30.04
2023-07-15T08:42:27.352Z,30.08
2023-07-15T08:43:27.342Z,30.04
2023-07-15T08:44:27.349Z,29.97
2023-07-15T08:45:27.358Z,29.82
2023-07-15T08:46:27.473Z,29.86
2023-07-15T08:47:27.345Z,29.49
2023-07-15T08:48:27.337Z,29.41
2023-07-15T08:49:27.313Z,29.62
2023-07-15T08:50:27.298Z,29.73
2023-07-15T08:51:27.279Z,29.70
2023-07-15T08:52:27.303Z,29.66
2023-07-15T08:53:54.574Z,29.70
2023-07-15T08:54:39.713Z,29.52
2023-07-15T08:55:27.232Z,29.42
2023-07-15T08:56:27.214Z,29.45
2023-07-15T08:57:27.202Z,29.41
2023-07-15T08:58:27.207Z,29.51
2023-07-15T08:59:27.181Z,29.52
2023-07-15T09:00:27.163Z,29.60
2023-07-15T09:01:27.300Z,29.64
2023-07-15T09:02:27.189Z,29.62
2023-07-15T09:03:27.447Z,29.71
2023-07-15T09:04:27.243Z,29.64
2023-07-15T09:05:27.132Z,29.85
2023-07-15T09:06:27.133Z,29.95
2023-07-15T09:07:27.117Z,29.89
2023-07-15T09:08:27.134Z,30.16
2023-07-15T09:09:27.299Z,30.16
2023-07-15T09:10:27.078Z,30.30
2023-07-15T09:11:27.055Z,30.40
2023-07-15T09:12:27.052Z,30.45
2023-07-15T09:13:27.189Z,30.44
2023-07-15T09:14:27.051Z,30.67
2023-07-15T09:15:27.042Z,30.78
2023-07-15T09:16:27.037Z,30.68
2023-07-15T09:17:27.058Z,30.60
2023-07-15T09:18:27.017Z,30.57
2023-07-15T09:19:27.090Z,30.28
2023-07-15T09:20:27.033Z,30.25
2023-07-15T09:21:26.968Z,30.36
2023-07-15T09:22:27.068Z,30.40
2023-07-15T09:23:27.084Z,30.51
2023-07-15T09:24:26.998Z,30.37
2023-07-15T09:25:27.007Z,30.30
2023-07-15T09:26:28.131Z,30.19
2023-07-15T09:27:26.943Z,30.04
2023-07-15T09:28:26.896Z,29.95
2023-07-15T09:29:26.928Z,30.04
2023-07-15T09:30:26.891Z,30.07
2023-07-15T09:31:27.070Z,29.97
2023-07-15T09:32:27.832Z,29.91
2023-07-15T09:33:29.841Z,30.04
2023-07-15T09:34:26.964Z,30.15
2023-07-15T09:35:26.875Z,30.34
2023-07-15T09:36:26.916Z,30.34
2023-07-15T09:37:26.851Z,30.23
2023-07-15T09:38:26.847Z,30.32
2023-07-15T09:39:26.894Z,30.38
2023-07-15T09:40:26.805Z,30.67
2023-07-15T09:41:27.947Z,30.72
2023-07-15T09:42:26.789Z,30.66
2023-07-15T09:43:26.786Z,30.51
2023-07-15T09:44:26.744Z,30.18
2023-07-15T09:45:26.734Z,30.01
2023-07-15T09:46:26.871Z,30.00
2023-07-15T09:47:26.771Z,30.06
2023-07-15T09:48:26.712Z,30.04
2023-07-15T09:49:26.706Z,30.04
2023-07-15T09:50:26.838Z,29.88
2023-07-15T09:51:26.733Z,29.76
2023-07-15T09:52:26.673Z,29.66
2023-07-15T09:53:26.690Z,29.71
2023-07-15T09:54:26.717Z,29.71
2023-07-15T09:55:26.701Z,29.58
2023-07-15T09:56:26.623Z,29.62
2023-07-15T09:57:26.607Z,29.62
2023-07-15T09:58:26.614Z,29.62
2023-07-15T09:59:26.625Z,29.57
2023-07-15T10:00:26.631Z,29.54
2023-07-15T10:01:26.716Z,29.55
2023-07-15T10:02:28.783Z,29.57
2023-07-15T10:03:26.545Z,29.57
2023-07-15T10:04:26.629Z,29.62
2023-07-15T10:05:26.652Z,29.62
2023-07-15T10:06:26.588Z,29.54
2023-07-15T10:07:26.521Z,29.48
2023-07-15T10:08:26.528Z,29.42
2023-07-15T10:09:26.525Z,29.37
2023-07-15T10:10:26.517Z,29.35
2023-07-15T10:11:26.468Z,29.35
2023-07-15T10:12:26.533Z,29.26
2023-07-15T10:13:26.472Z,29.11
2023-07-15T10:14:27.326Z,29.05
2023-07-15T10:15:26.481Z,28.97
2023-07-15T10:16:26.512Z,28.97
2023-07-15T10:17:26.444Z,28.91
2023-07-15T10:18:26.480Z,28.89
2023-07-15T10:19:26.425Z,28.82
2023-07-15T10:20:26.390Z,28.74
2023-07-15T10:21:26.397Z,28.65
2023-07-15T10:22:26.386Z,28.57
2023-07-15T10:23:26.347Z,28.52
2023-07-15T10:24:26.399Z,28.51
2023-07-15T10:25:26.345Z,28.48
2023-07-15T10:26:26.360Z,28.50
2023-07-15T10:27:26.321Z,28.52
2023-07-15T10:28:26.329Z,28.55
2023-07-15T10:29:26.437Z,28.54
2023-07-15T10:30:26.287Z,28.57
2023-07-15T10:31:26.658Z,28.61
2023-07-15T10:32:26.372Z,28.61
2023-07-15T10:33:26.288Z,28.61
2023-07-15T10:34:26.298Z,28.60
2023-07-15T10:35:26.268Z,28.60
2023-07-15T10:36:26.302Z,28.60
2023-07-15T10:37:26.223Z,28.60
2023-07-15T10:38:26.268Z,28.62
2023-07-15T10:39:26.232Z,28.57
2023-07-15T10:40:26.330Z,28.57
2023-07-15T10:41:26.229Z,28.57
2023-07-15T10:42:26.216Z,28.58
2023-07-15T10:43:27.227Z,28.60
2023-07-15T10:44:26.194Z,28.57
2023-07-15T10:45:26.121Z,28.46
2023-07-15T10:46:26.207Z,28.48
2023-07-15T10:47:26.222Z,28.50
2023-07-15T10:48:26.160Z,28.51
2023-07-15T10:49:26.137Z,28.55
2023-07-15T10:50:26.110Z,28.38
2023-07-15T10:51:26.107Z,28.28
2023-07-15T10:52:26.105Z,28.25
2023-07-15T10:53:26.186Z,28.24
2023-07-15T10:54:26.099Z,28.30
2023-07-15T10:55:26.044Z,28.32
2023-07-15T10:56:26.034Z,28.30
2023-07-15T10:57:27.654Z,28.33
2023-07-15T10:58:26.027Z,28.25
2023-07-15T10:59:26.006Z,28.23
2023-07-15T11:00:26.060Z,28.25
2023-07-15T11:01:26.069Z,28.27
2023-07-15T11:02:26.017Z,28.27
2023-07-15T11:03:25.954Z,28.27
2023-07-15T11:04:25.988Z,28.25
2023-07-15T11:05:25.935Z,28.20
2023-07-15T11:06:25.943Z,28.23
2023-07-15T11:07:27.060Z,28.20
2023-07-15T11:08:25.907Z,28.13
2023-07-15T11:09:25.902Z,28.09
2023-07-15T11:10:25.908Z,28.11
2023-07-15T11:11:25.980Z,28.05
2023-07-15T11:12:25.872Z,27.96
2023-07-15T11:13:25.872Z,27.96
2023-07-15T11:14:25.852Z,27.95
2023-07-15T11:15:25.954Z,27.95
2023-07-15T11:16:26.395Z,27.96
2023-07-15T11:17:26.108Z,27.88
2023-07-15T11:18:26.374Z,27.90
2023-07-15T11:19:25.844Z,27.95
2023-07-15T11:20:26.145Z,27.91
2023-07-15T11:21:25.830Z,27.96
2023-07-15T11:22:25.903Z,28.01
2023-07-15T11:23:25.893Z,28.01
2023-07-15T11:24:25.795Z,28.02
2023-07-15T11:25:25.740Z,28.02
2023-07-15T11:26:25.770Z,27.99
2023-07-15T11:27:25.693Z,27.93
2023-07-15T11:28:25.865Z,27.93
2023-07-15T11:29:25.698Z,27.91
2023-07-15T11:30:25.712Z,27.95
2023-07-15T11:31:25.966Z,27.96
2023-07-15T11:32:25.696Z,27.95
2023-07-15T11:33:25.705Z,27.91
2023-07-15T11:34:25.650Z,27.90
2023-07-15T11:35:25.656Z,27.90
2023-07-15T11:36:25.631Z,27.81
2023-07-15T11:37:25.657Z,27.77
2023-07-15T11:38:25.591Z,27.66
2023-07-15T11:39:25.623Z,27.63
2023-07-15T11:40:25.576Z,27.63
2023-07-15T11:41:25.602Z,27.59
2023-07-15T11:42:25.559Z,27.53
2023-07-15T11:43:25.600Z,27.52
2023-07-15T11:44:26.489Z,27.31
2023-07-15T11:45:25.515Z,27.20
2023-07-15T11:46:25.596Z,27.12
2023-07-15T11:47:25.953Z,27.05
2023-07-15T11:48:25.518Z,27.05
2023-07-15T11:49:25.474Z,27.05
2023-07-15T11:50:25.485Z,26.97
2023-07-15T11:51:26.679Z,26.96
2023-07-15T11:52:25.556Z,26.90
2023-07-15T11:53:25.439Z,26.78
2023-07-15T11:54:25.447Z,26.71
2023-07-15T11:55:25.441Z,26.66
2023-07-15T11:56:25.462Z,26.65
2023-07-15T11:57:25.412Z,26.68
2023-07-15T11:58:25.408Z,26.65
2023-07-15T11:59:25.410Z,26.60
2023-07-15T12:00:39.927Z,26.59
2023-07-15T12:01:25.374Z,26.61
2023-07-15T12:02:28.820Z,26.66
2023-07-15T12:03:25.399Z,26.66
2023-07-15T12:04:25.355Z,26.69
2023-07-15T12:05:25.347Z,26.68
2023-07-15T12:06:25.351Z,26.71
2023-07-15T12:07:25.355Z,26.68
2023-07-15T12:08:25.319Z,26.65
2023-07-15T12:09:25.285Z,26.59
2023-07-15T12:10:25.512Z,26.60
2023-07-15T12:11:25.238Z,26.60
2023-07-15T12:12:25.319Z,26.53
2023-07-15T12:13:25.252Z,26.50
2023-07-15T12:14:25.243Z,26.49
2023-07-15T12:15:25.270Z,26.39
2023-07-15T12:16:25.328Z,26.36
2023-07-15T12:17:25.241Z,26.31
2023-07-15T12:18:25.219Z,26.27
2023-07-15T12:19:26.876Z,26.31
2023-07-15T12:20:25.187Z,26.46
2023-07-15T12:21:25.153Z,26.57
2023-07-15T12:22:25.193Z,26.75
2023-07-15T12:23:25.160Z,26.83
2023-07-15T12:24:25.178Z,26.81
2023-07-15T12:25:25.888Z,26.79
2023-07-15T12:26:25.366Z,26.69
2023-07-15T12:27:25.128Z,26.61
2023-07-15T12:28:25.907Z,26.53
2023-07-15T12:29:25.082Z,26.50
2023-07-15T12:30:25.095Z,26.44
2023-07-15T12:31:25.161Z,26.31
2023-07-15T12:32:25.082Z,26.34
2023-07-15T12:33:25.035Z,26.24
2023-07-15T12:34:25.035Z,26.21
2023-07-15T12:35:25.020Z,26.17
2023-07-15T12:36:25.054Z,26.17
2023-07-15T12:37:25.012Z,26.16
2023-07-15T12:38:25.002Z,26.12
2023-07-15T12:39:24.950Z,26.12
2023-07-15T12:40:25.005Z,26.09
2023-07-15T12:41:25.034Z,26.06
2023-07-15T12:42:24.969Z,26.13
2023-07-15T12:43:24.900Z,26.20
2023-07-15T12:44:24.898Z,26.28
2023-07-15T12:45:24.898Z,26.24
2023-07-15T12:46:24.952Z,26.29
2023-07-15T12:47:24.944Z,26.28
2023-07-15T12:48:24.925Z,26.35
2023-07-15T12:49:24.880Z,26.34
2023-07-15T12:50:24.846Z,26.29
2023-07-15T12:51:24.841Z,26.27
2023-07-15T12:52:24.846Z,26.32
2023-07-15T12:53:24.899Z,26.28
2023-07-15T12:54:24.922Z,26.21
2023-07-15T12:55:24.814Z,26.20
2023-07-15T12:56:24.855Z,26.19
2023-07-15T12:57:24.792Z,26.20
2023-07-15T12:58:24.801Z,26.16
2023-07-15T12:59:24.801Z,26.03
2023-07-15T13:00:24.773Z,26.01
2023-07-15T13:01:24.824Z,25.97
2023-07-15T13:02:24.791Z,25.96
2023-07-15T13:03:24.928Z,25.94
2023-07-15T13:04:24.740Z,25.98
2023-07-15T13:05:24.715Z,25.98
2023-07-15T13:06:24.665Z,26.00
2023-07-15T13:07:24.690Z,25.91
2023-07-15T13:08:24.665Z,25.85
2023-07-15T13:09:24.668Z,25.85
2023-07-15T13:10:24.670Z,25.85
2023-07-15T13:11:24.662Z,25.81
2023-07-15T13:12:24.613Z,25.79
2023-07-15T13:13:24.675Z,25.78
2023-07-15T13:14:24.680Z,25.78
2023-07-15T13:15:24.596Z,25.78
2023-07-15T13:16:24.659Z,25.74
2023-07-15T13:17:24.624Z,25.67
2023-07-15T13:18:24.562Z,25.67
2023-07-15T13:19:24.541Z,25.75
2023-07-15T13:20:24.574Z,25.78
2023-07-15T13:21:24.669Z,25.74
2023-07-15T13:22:24.574Z,25.61
2023-07-15T13:23:25.440Z,25.56
2023-07-15T13:24:24.555Z,25.53
2023-07-15T13:25:24.663Z,25.51